createdAt,value
2018-08-17T03:05:16.200Z,100892.08
2018-08-17T03:38:58.081Z,100881.59
2018-08-17T05:53:58.929Z,101067.67
2018-08-17T06:02:24.008Z,101067.94
2018-08-17T06:27:42.444Z,101072.98
2018-08-17T06:36:03.549Z,101079.20
2018-08-17T06:44:24.553Z,101108.49
2018-08-17T06:52:45.666Z,101118.33
2018-08-17T07:01:12.625Z,101101.25
2018-08-17T07:09:33.809Z,101101.30
2018-08-17T07:17:54.886Z,101079.47
2018-08-17T07:26:15.918Z,101068.31
2018-08-17T07:34:37.037Z,101063.82
2018-08-17T07:42:58.076Z,101060.83
2018-08-17T07:51:19.230Z,101045.80
2018-08-17T07:59:40.363Z,101034.38
2018-08-17T08:08:01.388Z,101029.23
2018-08-17T08:16:22.411Z,101032.73
2018-08-17T08:24:43.453Z,101027.95
2018-08-17T08:33:04.479Z,101052.00
2018-08-17T08:41:25.587Z,101072.26
2018-08-17T08:49:46.631Z,101113.98
2018-08-17T08:58:07.641Z,101130.83
2018-08-17T09:06:28.677Z,101135.02
2018-08-17T09:27:39.463Z,101147.77
2018-08-17T09:36:00.726Z,101149.11
2018-08-17T09:44:21.772Z,101156.50
2018-08-17T09:52:42.852Z,101149.62
2018-08-17T10:01:04.918Z,101148.75
2018-08-17T10:09:25.939Z,101154.44
2018-08-17T10:17:47.007Z,101147.00
2018-08-17T10:26:08.048Z,101160.52
2018-08-17T10:40:32.928Z,101166.98
2018-08-17T10:48:55.123Z,101164.05
2018-08-17T10:57:16.102Z,101162.92
2018-08-17T11:05:48.835Z,101155.61
2018-08-17T11:14:09.860Z,101161.71
2018-08-17T11:27:36.074Z,101179.45
2018-08-17T11:35:59.194Z,101182.14
2018-08-17T11:44:20.491Z,101180.86
2018-08-17T12:01:07.674Z,101196.16
2018-08-17T12:18:28.389Z,101218.48
2018-08-17T12:35:15.683Z,101250.55
2018-08-17T12:43:41.301Z,101244.75
2018-08-17T13:17:27.000Z,101230.66
2018-08-17T13:25:48.059Z,101232.01
2018-08-17T13:36:59.467Z,101227.34
2018-08-17T13:45:20.491Z,101223.16
2018-08-17T13:53:41.531Z,101227.39
2018-08-17T14:02:05.046Z,101220.53
2018-08-17T14:10:26.095Z,101217.56
2018-08-17T15:22:03.772Z,101196.35
2018-08-17T15:38:51.702Z,101174.41
2018-08-17T15:55:39.544Z,101191.95
2018-08-17T16:04:00.936Z,101188.97
2018-08-17T16:12:22.188Z,101178.30
2018-08-17T16:20:43.241Z,101181.80
2018-08-17T16:29:04.335Z,101172.27
2018-08-17T16:37:25.425Z,101176.66
2018-08-17T16:45:46.397Z,101185.36
2018-08-17T16:54:07.397Z,101188.66
2018-08-17T17:44:42.830Z,101201.39
2018-08-17T17:53:03.803Z,101204.52
2018-08-17T18:01:24.825Z,101210.27
2018-08-17T18:09:46.053Z,101211.98
2018-08-17T18:18:07.081Z,101216.16
2018-08-17T18:26:32.288Z,101213.64
2018-08-17T18:37:00.176Z,101230.69
2018-08-17T18:45:21.208Z,101245.16
2018-08-17T18:55:07.156Z,101255.24
2018-08-17T19:03:28.198Z,101276.17
2018-08-17T19:20:16.297Z,101289.83
2018-08-17T19:37:03.714Z,101315.91
2018-08-17T19:45:24.766Z,101314.48
2018-08-17T19:53:45.877Z,101320.86
2018-08-17T20:10:33.500Z,101332.84
2018-08-17T20:18:54.520Z,101336.59
2018-08-17T20:27:15.805Z,101342.32
2018-08-17T20:35:37.092Z,101341.91
2018-08-17T20:52:24.930Z,101357.09
2018-08-17T21:00:45.968Z,101363.75
2018-08-17T21:09:10.797Z,101367.31
2018-08-17T21:17:32.188Z,101368.73
2018-08-17T21:25:55.477Z,101372.96
2018-08-17T21:34:16.512Z,101382.37
2018-08-17T21:51:04.473Z,101390.82
2018-08-17T22:07:51.782Z,101398.41
2018-08-17T22:19:53.464Z,101399.33
2018-08-17T22:53:35.008Z,101422.71
2018-08-17T23:01:56.054Z,101429.19
2018-08-17T23:10:17.102Z,101437.05
2018-08-17T23:35:31.715Z,101435.59
2018-08-17T23:43:52.769Z,101454.29
2018-08-17T23:52:19.567Z,101452.89
